createdAt,value
2022-11-06T00:00:09.998Z,100507.34
2022-11-06T00:02:37.870Z,100514.25
2022-11-06T00:05:24.702Z,100519.28
2022-11-06T00:07:53.125Z,100523.56
2022-11-06T00:10:20.704Z,100501.37
2022-11-06T00:12:48.677Z,100519.56
2022-11-06T00:15:16.537Z,100495.59
2022-11-06T00:17:44.065Z,100507.50
2022-11-06T00:20:11.638Z,100516.22
2022-11-06T00:22:39.361Z,100500.50
2022-11-06T00:25:07.375Z,100499.09
2022-11-06T00:27:38.712Z,100505.13
2022-11-06T00:30:07.512Z,100496.62
2022-11-06T00:32:35.221Z,100489.66
2022-11-06T00:35:02.684Z,100507.50
2022-11-06T00:37:30.442Z,100508.28
2022-11-06T00:39:59.520Z,100498.81
2022-11-06T00:42:27.094Z,100507.50
2022-11-06T00:44:54.923Z,100505.72
2022-11-06T00:47:22.459Z,100503.22
2022-11-06T00:49:49.945Z,100509.31
2022-11-06T00:52:17.766Z,100500.59
2022-11-06T00:54:45.260Z,100507.63
2022-11-06T00:57:12.902Z,100504.91
2022-11-06T00:59:41.673Z,100502.09
2022-11-06T01:02:09.198Z,100505.72
2022-11-06T01:04:36.899Z,100508.16
2022-11-06T01:07:04.627Z,100489.38
2022-11-06T01:09:32.999Z,100505.66
2022-11-06T01:12:16.660Z,100490.28
2022-11-06T01:14:45.369Z,100506.44
2022-11-06T01:17:13.336Z,100502.91
2022-11-06T01:19:40.944Z,100492.62
2022-11-06T01:22:08.740Z,100508.06
2022-11-06T01:24:36.287Z,100506.97
2022-11-06T01:29:51.683Z,100501.44
2022-11-06T01:32:19.290Z,100502.56
2022-11-06T01:34:47.075Z,100506.91
2022-11-06T01:37:15.236Z,100499.09
2022-11-06T01:39:45.202Z,100499.75
2022-11-06T01:42:14.126Z,100500.72
2022-11-06T01:44:41.674Z,100510.12
2022-11-06T01:47:18.207Z,100505.66
2022-11-06T01:49:47.169Z,100508.16
2022-11-06T01:52:16.517Z,100507.09
2022-11-06T01:54:46.338Z,100514.97
2022-11-06T01:57:14.090Z,100513.06
2022-11-06T01:59:44.372Z,100518.13
2022-11-06T02:02:13.207Z,100526.72
2022-11-06T02:04:44.521Z,100524.72
2022-11-06T02:07:12.659Z,100523.69
2022-11-06T02:09:41.579Z,100516.44
2022-11-06T02:12:15.315Z,100510.53
2022-11-06T02:15:03.214Z,100508.63
2022-11-06T02:17:40.359Z,100529.88
2022-11-06T02:20:31.133Z,100529.72
2022-11-06T02:23:23.828Z,100529.72
2022-11-06T02:26:05.877Z,100527.88
2022-11-06T02:28:42.779Z,100538.25
2022-11-06T02:31:13.927Z,100532.91
2022-11-06T02:33:48.933Z,100542.37
2022-11-06T02:36:20.271Z,100536.13
2022-11-06T02:38:51.658Z,100536.19
2022-11-06T02:41:25.765Z,100538.75
2022-11-06T02:43:56.147Z,100540.53
2022-11-06T02:46:34.871Z,100540.59
2022-11-06T02:49:08.721Z,100550.19
2022-11-06T02:51:47.681Z,100554.44
2022-11-06T02:54:16.317Z,100552.75
2022-11-06T02:56:45.918Z,100557.88
2022-11-06T02:59:36.398Z,100560.62
2022-11-06T03:02:08.124Z,100570.16
2022-11-06T03:04:39.763Z,100566.16
2022-11-06T03:07:35.427Z,100567.06
2022-11-06T03:10:05.135Z,100572.34
2022-11-06T03:12:36.654Z,100572.41
2022-11-06T03:15:24.582Z,100568.38
2022-11-06T03:17:55.570Z,100558.25
2022-11-06T03:20:37.532Z,100569.78
2022-11-06T03:23:17.576Z,100569.56
2022-11-06T03:25:54.371Z,100569.44
2022-11-06T03:28:34.693Z,100576.53
2022-11-06T03:31:03.650Z,100581.66
2022-11-06T03:33:39.257Z,100585.13
2022-11-06T03:36:47.379Z,100576.66
2022-11-06T03:39:19.135Z,100579.28
2022-11-06T03:42:01.530Z,100579.16
2022-11-06T03:44:30.715Z,100575.69
2022-11-06T03:47:04.261Z,100582.59
2022-11-06T03:49:39.037Z,100587.31
2022-11-06T03:52:11.541Z,100583.75
2022-11-06T03:54:47.138Z,100588.88
2022-11-06T03:57:22.759Z,100596.56
2022-11-06T03:59:53.930Z,100601.88
2022-11-06T04:02:23.402Z,100602.81
2022-11-06T04:04:55.990Z,100598.72
2022-11-06T04:07:27.148Z,100608.38
2022-11-06T04:10:18.436Z,100608.59
2022-11-06T04:13:06.385Z,100610.28
2022-11-06T04:15:38.756Z,100609.22
2022-11-06T04:18:18.963Z,100614.62
2022-11-06T04:21:26.178Z,100615.53
2022-11-06T04:24:54.324Z,100618.97
2022-11-06T04:27:33.942Z,100622.25
2022-11-06T04:30:08.480Z,100624.13
2022-11-06T04:32:54.590Z,100622.25
2022-11-06T04:35:42.362Z,100631.13
2022-11-06T04:38:18.802Z,100627.09
2022-11-06T04:41:12.717Z,100627.37
2022-11-06T04:43:50.814Z,100628.88
2022-11-06T04:46:25.603Z,100621.19
2022-11-06T04:48:54.466Z,100637.03
2022-11-06T04:51:26.669Z,100645.75
2022-11-06T04:53:55.358Z,100642.47
2022-11-06T04:56:29.399Z,100643.44
2022-11-06T04:58:57.939Z,100646.25
2022-11-06T05:01:25.827Z,100660.91
2022-11-06T05:03:53.399Z,100649.66
2022-11-06T05:06:23.550Z,100642.28
2022-11-06T05:08:55.433Z,100652.47
2022-11-06T05:11:23.414Z,100639.81
2022-11-06T05:13:50.946Z,100659.69
2022-11-06T05:16:18.533Z,100668.31
2022-11-06T05:18:47.349Z,100668.34
2022-11-06T05:21:33.677Z,100660.53
2022-11-06T05:24:01.496Z,100653.06
2022-11-06T05:26:28.959Z,100675.44
2022-11-06T05:28:56.425Z,100681.63
2022-11-06T05:31:25.042Z,100680.78
2022-11-06T05:33:52.574Z,100685.16
2022-11-06T05:36:20.085Z,100689.50
2022-11-06T05:38:47.846Z,100692.97
2022-11-06T05:41:15.431Z,100712.97
2022-11-06T05:43:43.184Z,100695.78
2022-11-06T05:46:29.574Z,100690.59
2022-11-06T05:48:58.720Z,100709.81
2022-11-06T05:51:26.482Z,100710.63
2022-11-06T05:53:55.210Z,100699.56
2022-11-06T05:56:22.918Z,100717.69
2022-11-06T05:58:50.702Z,100714.91
2022-11-06T06:01:18.449Z,100724.53
2022-11-06T06:03:46.219Z,100726.19
2022-11-06T06:06:13.854Z,100737.84
2022-11-06T06:08:41.361Z,100724.84
2022-11-06T06:11:09.136Z,100749.19
2022-11-06T06:13:37.641Z,100743.91
2022-11-06T06:16:05.356Z,100751.69
2022-11-06T06:18:33.199Z,100746.72
2022-11-06T06:21:00.730Z,100750.28
2022-11-06T06:23:28.257Z,100753.00
2022-11-06T06:25:56.995Z,100738.50
2022-11-06T06:28:24.405Z,100757.41
2022-11-06T06:30:54.748Z,100757.31
2022-11-06T06:33:24.917Z,100756.66
2022-11-06T06:35:52.338Z,100749.56
2022-11-06T06:38:20.116Z,100751.25
2022-11-06T06:40:47.925Z,100754.75
2022-11-06T06:43:15.458Z,100763.41
2022-11-06T06:45:42.953Z,100770.56
2022-11-06T06:48:10.980Z,100751.59
2022-11-06T06:50:38.680Z,100772.03
2022-11-06T06:53:06.129Z,100776.53
2022-11-06T06:55:33.900Z,100781.91
2022-11-06T06:58:04.013Z,100782.66
2022-11-06T07:00:31.654Z,100779.09
2022-11-06T07:02:59.648Z,100775.81
2022-11-06T07:05:27.150Z,100780.84
2022-11-06T07:07:54.853Z,100783.28
2022-11-06T07:10:22.648Z,100760.00
2022-11-06T07:12:50.527Z,100784.03
2022-11-06T07:15:18.299Z,100770.34
2022-11-06T07:17:46.088Z,100783.88
2022-11-06T07:20:13.603Z,100788.34
2022-11-06T07:22:41.072Z,100782.06
2022-11-06T07:25:09.090Z,100788.16
2022-11-06T07:27:41.457Z,100793.37
2022-11-06T07:30:09.752Z,100793.59
2022-11-06T07:32:37.298Z,100802.03
2022-11-06T07:35:05.518Z,100797.72
2022-11-06T07:37:33.575Z,100803.69
2022-11-06T07:40:01.282Z,100775.16
2022-11-06T07:42:28.998Z,100791.31
2022-11-06T07:44:57.255Z,100774.12
2022-11-06T07:47:24.841Z,100793.88
2022-11-06T07:49:53.599Z,100785.97
2022-11-06T07:52:21.433Z,100793.69
2022-11-06T07:54:48.972Z,100792.00
2022-11-06T07:57:16.451Z,100783.47
2022-11-06T07:59:44.259Z,100801.47
2022-11-06T08:02:13.101Z,100780.44
2022-11-06T08:04:41.260Z,100799.37
2022-11-06T08:07:08.852Z,100800.66
2022-11-06T08:09:36.556Z,100787.53
2022-11-06T08:12:04.574Z,100812.41
2022-11-06T08:14:32.121Z,100812.06
2022-11-06T08:16:59.603Z,100818.53
2022-11-06T08:19:27.460Z,100813.06
2022-11-06T08:21:54.918Z,100815.72
2022-11-06T08:24:22.429Z,100813.59
2022-11-06T08:26:50.366Z,100817.09
2022-11-06T08:29:17.920Z,100816.00
2022-11-06T08:31:45.446Z,100809.03
2022-11-06T08:34:13.206Z,100824.44
2022-11-06T08:36:52.088Z,100814.00
2022-11-06T08:39:19.852Z,100798.09
2022-11-06T08:41:47.364Z,100813.50
2022-11-06T08:44:14.976Z,100824.22
2022-11-06T08:46:45.403Z,100828.88
2022-11-06T08:49:16.822Z,100837.63
2022-11-06T08:51:44.656Z,100839.88
2022-11-06T08:54:12.425Z,100847.53
2022-11-06T08:56:40.063Z,100833.28
2022-11-06T08:59:07.910Z,100830.78
2022-11-06T09:01:35.563Z,100837.19
2022-11-06T09:04:03.267Z,100841.66
2022-11-06T09:06:31.109Z,100840.13
2022-11-06T09:08:58.589Z,100842.50
2022-11-06T09:11:26.391Z,100840.34
2022-11-06T09:13:54.171Z,100838.69
2022-11-06T09:16:21.677Z,100843.78
2022-11-06T09:18:49.152Z,100841.41
2022-11-06T09:21:19.925Z,100829.06
2022-11-06T09:23:48.663Z,100837.19
2022-11-06T09:26:16.735Z,100830.75
2022-11-06T09:28:44.584Z,100832.00
2022-11-06T09:31:12.641Z,100831.53
2022-11-06T09:33:40.121Z,100829.38
2022-11-06T09:36:08.287Z,100827.59
2022-11-06T09:38:36.421Z,100829.09
2022-11-06T09:41:04.449Z,100829.06
2022-11-06T09:44:09.650Z,100831.28
2022-11-06T09:46:45.884Z,100825.34
2022-11-06T09:49:17.025Z,100821.16
2022-11-06T09:51:56.895Z,100806.91
2022-11-06T09:54:37.203Z,100830.09
2022-11-06T09:57:11.551Z,100829.75
2022-11-06T09:59:41.521Z,100828.00
2022-11-06T10:02:41.191Z,100826.72
2022-11-06T10:05:18.467Z,100824.56
2022-11-06T10:07:46.154Z,100833.00
2022-11-06T10:10:17.716Z,100832.25
2022-11-06T10:13:26.632Z,100833.72
2022-11-06T10:17:01.122Z,100824.63
2022-11-06T10:19:39.492Z,100829.94
2022-11-06T10:22:16.552Z,100828.25
2022-11-06T10:24:44.076Z,100813.37
2022-11-06T10:27:19.774Z,100825.69
2022-11-06T10:29:57.407Z,100811.09
2022-11-06T10:32:56.112Z,100829.63
2022-11-06T10:35:35.970Z,100823.78
2022-11-06T10:38:12.276Z,100825.66
2022-11-06T10:40:57.696Z,100822.44
2022-11-06T10:43:36.317Z,100817.03
2022-11-06T10:46:12.580Z,100823.91
2022-11-06T10:48:44.117Z,100814.97
2022-11-06T10:51:29.537Z,100810.13
2022-11-06T10:54:12.104Z,100813.31
2022-11-06T10:57:09.404Z,100811.19
2022-11-06T10:59:37.254Z,100819.09
2022-11-06T11:02:05.579Z,100805.31
2022-11-06T11:04:33.234Z,100809.38
2022-11-06T11:07:18.820Z,100804.72
2022-11-06T11:09:52.143Z,100789.37
2022-11-06T11:12:25.634Z,100799.78
2022-11-06T11:15:05.604Z,100796.34
2022-11-06T11:17:33.407Z,100799.19
2022-11-06T11:20:02.208Z,100804.56
2022-11-06T11:22:33.143Z,100803.56
2022-11-06T11:25:26.990Z,100798.44
2022-11-06T11:27:55.006Z,100800.28
2022-11-06T11:30:29.689Z,100795.38
2022-11-06T11:32:57.916Z,100794.22
2022-11-06T11:35:28.538Z,100793.72
2022-11-06T11:38:12.612Z,100785.31
2022-11-06T11:40:40.778Z,100788.75
2022-11-06T11:43:28.421Z,100785.19
2022-11-06T11:46:03.608Z,100776.69
2022-11-06T11:48:57.943Z,100779.22
2022-11-06T11:51:41.158Z,100768.31
2022-11-06T11:54:11.812Z,100776.88
2022-11-06T11:57:09.803Z,100773.16
2022-11-06T11:59:43.108Z,100765.31
2022-11-06T12:02:27.558Z,100762.09
2022-11-06T12:05:08.156Z,100775.41
2022-11-06T12:07:40.788Z,100758.53
2022-11-06T12:10:23.195Z,100768.75
2022-11-06T12:12:51.910Z,100776.94
2022-11-06T12:15:27.575Z,100776.78
2022-11-06T12:17:59.812Z,100762.87
2022-11-06T12:20:41.877Z,100764.34
2022-11-06T12:23:16.553Z,100760.66
2022-11-06T12:25:50.357Z,100766.13
2022-11-06T12:28:18.889Z,100764.50
2022-11-06T12:31:00.322Z,100761.63
2022-11-06T12:34:00.016Z,100757.38
2022-11-06T12:36:19.034Z,100761.41
2022-11-06T12:38:49.891Z,100764.06
2022-11-06T12:41:30.766Z,100763.19
2022-11-06T12:44:00.023Z,100754.97
2022-11-06T12:46:43.055Z,100754.31
2022-11-06T12:49:19.644Z,100740.53
2022-11-06T12:52:01.302Z,100749.53
2022-11-06T12:54:55.373Z,100751.63
2022-11-06T12:57:51.435Z,100752.03
2022-11-06T13:00:21.474Z,100756.06
2022-11-06T13:03:11.217Z,100752.63
2022-11-06T13:05:41.056Z,100744.34
2022-11-06T13:08:18.353Z,100732.41
2022-11-06T13:11:07.610Z,100750.81
2022-11-06T13:13:44.127Z,100739.75
2022-11-06T13:16:34.883Z,100749.47
2022-11-06T13:19:32.286Z,100753.72
2022-11-06T13:22:18.835Z,100765.16
2022-11-06T13:24:58.594Z,100769.09
2022-11-06T13:27:32.206Z,100770.81
2022-11-06T13:30:06.221Z,100768.81
2022-11-06T13:32:36.041Z,100771.88
2022-11-06T13:35:04.167Z,100765.59
2022-11-06T13:37:43.028Z,100751.34
2022-11-06T13:40:30.852Z,100771.72
2022-11-06T13:43:10.660Z,100768.16
2022-11-06T13:45:59.684Z,100785.56
2022-11-06T13:48:44.191Z,100781.59
2022-11-06T13:51:17.420Z,100784.31
2022-11-06T13:54:23.848Z,100790.13
2022-11-06T13:57:17.759Z,100778.72
2022-11-06T14:00:10.549Z,100796.69
2022-11-06T14:02:58.702Z,100795.63
2022-11-06T14:05:42.329Z,100795.22
2022-11-06T14:08:17.839Z,100806.41
2022-11-06T14:11:07.008Z,100813.78
2022-11-06T14:13:35.498Z,100824.84
2022-11-06T14:16:07.516Z,100810.81
2022-11-06T14:18:35.589Z,100816.09
2022-11-06T14:21:28.253Z,100815.47
2022-11-06T14:24:06.327Z,100820.19
2022-11-06T14:26:52.217Z,100820.19
2022-11-06T14:29:25.882Z,100812.81
2022-11-06T14:32:06.490Z,100810.22
2022-11-06T14:34:37.403Z,100804.56
2022-11-06T14:37:20.094Z,100812.09
2022-11-06T14:39:51.463Z,100820.00
2022-11-06T14:42:31.422Z,100810.59
2022-11-06T14:45:00.847Z,100819.59
2022-11-06T14:47:36.890Z,100819.03
2022-11-06T14:50:19.584Z,100820.97
2022-11-06T14:53:00.895Z,100819.25
2022-11-06T14:55:40.614Z,100816.81
2022-11-06T14:58:18.900Z,100818.06
2022-11-06T15:01:11.192Z,100803.47
2022-11-06T15:04:00.110Z,100814.66
2022-11-06T15:06:39.010Z,100815.03
2022-11-06T15:09:11.747Z,100809.03
2022-11-06T15:11:47.411Z,100803.34
2022-11-06T15:14:15.519Z,100818.44
2022-11-06T15:16:47.341Z,100811.53
2022-11-06T15:19:31.955Z,100824.63
2022-11-06T15:22:33.812Z,100828.25
2022-11-06T15:25:20.009Z,100821.34
2022-11-06T15:27:55.248Z,100828.34
2022-11-06T15:30:22.841Z,100826.50
2022-11-06T15:32:53.050Z,100830.34
2022-11-06T15:35:26.154Z,100838.78
2022-11-06T15:37:57.955Z,100844.06
2022-11-06T15:40:29.017Z,100839.84
2022-11-06T15:43:00.122Z,100839.84
2022-11-06T15:45:29.147Z,100841.72
2022-11-06T15:48:02.371Z,100849.53
2022-11-06T15:50:35.569Z,100846.78
2022-11-06T15:53:12.835Z,100826.00
2022-11-06T15:55:45.373Z,100841.41
2022-11-06T15:58:19.390Z,100844.84
2022-11-06T16:00:47.054Z,100843.78
2022-11-06T16:03:17.434Z,100835.28
2022-11-06T16:05:46.620Z,100844.97
2022-11-06T16:08:15.316Z,100837.28
2022-11-06T16:10:45.194Z,100844.13
2022-11-06T16:13:15.033Z,100840.22
2022-11-06T16:15:46.922Z,100851.19
2022-11-06T16:18:17.401Z,100855.16
2022-11-06T16:20:51.187Z,100852.72
2022-11-06T16:23:23.176Z,100867.66
2022-11-06T16:26:07.085Z,100868.47
2022-11-06T16:28:34.909Z,100864.66
2022-11-06T16:31:10.920Z,100841.13
2022-11-06T16:33:38.549Z,100861.13
2022-11-06T16:36:08.781Z,100841.59
2022-11-06T16:38:42.309Z,100863.06
2022-11-06T16:41:12.360Z,100865.72
2022-11-06T16:43:39.982Z,100872.62
2022-11-06T16:46:08.503Z,100864.66
2022-11-06T16:48:41.526Z,100850.84
2022-11-06T16:51:12.081Z,100872.44
2022-11-06T16:53:55.871Z,100875.34
2022-11-06T16:56:29.141Z,100869.41
2022-11-06T16:59:04.031Z,100860.00
2022-11-06T17:01:40.914Z,100879.38
2022-11-06T17:04:20.435Z,100876.66
2022-11-06T17:06:48.436Z,100875.16
2022-11-06T17:09:22.940Z,100854.97
2022-11-06T17:11:58.361Z,100863.97
2022-11-06T17:14:26.836Z,100858.97
2022-11-06T17:16:57.939Z,100871.00
2022-11-06T17:19:27.194Z,100881.19
2022-11-06T17:21:55.571Z,100876.66
2022-11-06T17:24:38.657Z,100880.28
2022-11-06T17:27:06.716Z,100864.44
2022-11-06T17:29:36.545Z,100866.00
2022-11-06T17:32:04.777Z,100853.59
2022-11-06T17:34:32.718Z,100847.06
2022-11-06T17:37:00.424Z,100835.94
2022-11-06T17:39:27.992Z,100840.53
2022-11-06T17:41:55.943Z,100856.66
2022-11-06T17:44:23.627Z,100868.75
2022-11-06T17:46:51.588Z,100882.13
2022-11-06T17:49:19.310Z,100898.84
2022-11-06T17:51:50.589Z,100912.56
2022-11-06T17:54:20.488Z,100906.34
2022-11-06T17:56:49.954Z,100906.22
2022-11-06T17:59:17.695Z,100897.31
2022-11-06T18:01:47.878Z,100881.50
2022-11-06T18:04:16.470Z,100907.91
2022-11-06T18:06:46.095Z,100902.78
2022-11-06T18:09:14.828Z,100904.56
2022-11-06T18:11:43.045Z,100911.34
2022-11-06T18:14:12.870Z,100902.66
2022-11-06T18:16:43.939Z,100903.06
2022-11-06T18:19:15.813Z,100892.00
2022-11-06T18:21:43.807Z,100886.16
2022-11-06T18:24:11.465Z,100892.16
2022-11-06T18:26:40.098Z,100898.19
2022-11-06T18:29:08.375Z,100895.03
2022-11-06T18:31:36.230Z,100895.09
2022-11-06T18:34:05.404Z,100890.19
2022-11-06T18:36:35.088Z,100891.78
2022-11-06T18:39:04.863Z,100890.75
2022-11-06T18:41:33.295Z,100875.22
2022-11-06T18:44:01.593Z,100897.00
2022-11-06T18:46:30.307Z,100904.81
2022-11-06T18:48:58.905Z,100917.66
2022-11-06T18:51:37.867Z,100918.63
2022-11-06T18:54:08.091Z,100921.94
2022-11-06T18:56:37.355Z,100901.87
2022-11-06T18:59:07.111Z,100920.72
2022-11-06T19:01:35.369Z,100926.69
2022-11-06T19:04:04.496Z,100924.00
2022-11-06T19:06:32.722Z,100917.88
2022-11-06T19:09:00.569Z,100921.87
2022-11-06T19:11:32.567Z,100926.34
2022-11-06T19:14:00.651Z,100929.28
2022-11-06T19:16:28.388Z,100920.72
2022-11-06T19:21:30.520Z,100912.81
2022-11-06T19:24:04.704Z,100923.81
2022-11-06T19:26:35.325Z,100931.47
2022-11-06T19:29:05.429Z,100939.41
2022-11-06T19:31:34.424Z,100942.56
2022-11-06T19:34:04.846Z,100943.41
2022-11-06T19:36:32.720Z,100949.28
2022-11-06T19:39:00.837Z,100944.91
2022-11-06T19:41:28.761Z,100945.16
2022-11-06T19:43:56.829Z,100939.94
2022-11-06T19:46:28.540Z,100951.81
2022-11-06T19:48:59.115Z,100953.38
2022-11-06T19:51:26.621Z,100952.31
2022-11-06T19:53:54.608Z,100946.16
2022-11-06T19:56:22.712Z,100942.66
2022-11-06T19:58:52.513Z,100932.44
2022-11-06T20:01:21.643Z,100939.03
2022-11-06T20:03:49.827Z,100948.59
2022-11-06T20:06:17.926Z,100946.88
2022-11-06T20:08:50.350Z,100947.06
2022-11-06T20:11:18.639Z,100934.16
2022-11-06T20:13:47.002Z,100948.69
2022-11-06T20:16:20.161Z,100945.16
2022-11-06T20:18:52.421Z,100947.06
2022-11-06T20:21:21.444Z,100958.81
2022-11-06T20:23:49.729Z,100956.81
2022-11-06T20:26:18.724Z,100949.56
2022-11-06T20:28:51.350Z,100954.12
2022-11-06T20:31:19.809Z,100951.66
2022-11-06T20:33:48.325Z,100931.78
2022-11-06T20:36:23.136Z,100943.41
2022-11-06T20:38:53.055Z,100931.00
2022-11-06T20:41:21.913Z,100940.38
2022-11-06T20:43:49.800Z,100940.50
2022-11-06T20:46:17.596Z,100927.28
2022-11-06T20:48:45.694Z,100935.69
2022-11-06T20:51:16.520Z,100924.44
2022-11-06T20:53:44.430Z,100939.72
2022-11-06T20:56:15.413Z,100949.69
2022-11-06T20:58:43.834Z,100952.59
2022-11-06T21:01:18.207Z,100946.56
2022-11-06T21:03:47.913Z,100952.34
2022-11-06T21:06:16.602Z,100964.16
2022-11-06T21:08:45.896Z,100961.47
2022-11-06T21:11:17.254Z,100943.53
2022-11-06T21:13:47.032Z,100960.41
2022-11-06T21:16:21.074Z,100957.44
2022-11-06T21:18:49.144Z,100951.94
2022-11-06T21:21:21.135Z,100958.81
2022-11-06T21:23:49.653Z,100960.38
2022-11-06T21:26:27.492Z,100958.47
2022-11-06T21:28:56.130Z,100962.75
2022-11-06T21:31:26.188Z,100959.19
2022-11-06T21:33:55.979Z,100942.00
2022-11-06T21:36:35.043Z,100941.63
2022-11-06T21:39:05.659Z,100944.25
2022-11-06T21:41:34.493Z,100939.09
2022-11-06T21:44:03.529Z,100925.06
2022-11-06T21:46:31.336Z,100935.13
2022-11-06T21:48:59.464Z,100944.78
2022-11-06T21:51:32.241Z,100930.25
2022-11-06T21:54:18.964Z,100945.75
2022-11-06T21:56:50.854Z,100927.16
2022-11-06T21:59:20.295Z,100948.81
2022-11-06T22:01:47.937Z,100947.91
2022-11-06T22:04:15.810Z,100953.59
2022-11-06T22:06:43.730Z,100952.09
2022-11-06T22:09:13.098Z,100936.78
2022-11-06T22:11:42.928Z,100953.09
2022-11-06T22:14:12.985Z,100957.47
2022-11-06T22:16:42.439Z,100968.69
2022-11-06T22:19:11.238Z,100969.69
2022-11-06T22:21:39.475Z,100970.81
2022-11-06T22:24:08.149Z,100969.28
2022-11-06T22:26:36.281Z,100970.03
2022-11-06T22:29:07.411Z,100954.28
2022-11-06T22:31:35.644Z,100963.00
2022-11-06T22:34:03.811Z,100964.31
2022-11-06T22:36:31.516Z,100960.97
2022-11-06T22:39:00.723Z,100966.81
2022-11-06T22:41:28.262Z,100978.91
2022-11-06T22:43:59.768Z,100970.53
2022-11-06T22:46:28.602Z,100977.16
2022-11-06T22:48:56.137Z,100970.06
2022-11-06T22:51:26.237Z,100979.81
2022-11-06T22:53:54.617Z,100979.34
2022-11-06T22:56:23.472Z,100977.16
2022-11-06T22:58:55.767Z,100981.56
2022-11-06T23:01:24.669Z,100981.72
2022-11-06T23:03:56.688Z,100974.34
2022-11-06T23:06:25.524Z,100958.22
2022-11-06T23:08:53.559Z,100980.84
2022-11-06T23:11:25.254Z,100976.53
2022-11-06T23:13:53.516Z,100982.94
2022-11-06T23:16:44.163Z,100983.84
2022-11-06T23:19:14.293Z,100981.47
2022-11-06T23:21:42.335Z,100980.63
2022-11-06T23:24:10.523Z,100975.69
2022-11-06T23:26:38.386Z,100973.69
2022-11-06T23:29:06.065Z,100971.69
2022-11-06T23:31:33.550Z,100974.91
2022-11-06T23:34:01.333Z,100980.84
2022-11-06T23:36:28.779Z,100977.22
2022-11-06T23:38:56.453Z,100976.47
2022-11-06T23:41:42.582Z,100971.47
2022-11-06T23:44:30.023Z,100989.16
2022-11-06T23:46:58.249Z,100973.63
2022-11-06T23:49:25.889Z,100985.84
2022-11-06T23:51:53.415Z,100986.72
2022-11-06T23:54:21.206Z,100993.94
2022-11-06T23:56:48.703Z,100995.72
2022-11-06T23:59:16.319Z,101000.81
